Time;durP1;ratioP1;P1;durP2;ratioP2;P2;SDS_P1;SDS_P2;PMS_P1;PMS_P2;Temp;Humidity;BMP_temperature;BMP_pressure;BME280_temperature;BME280_humidity;BME280_pressure;Samples;Min_cycle;Max_cycle;Signal;HPM_P1;HPM_P2
2022/06/12 00:00:55;;;;;;;;;;;;;;;24.20;93.75;99549.31;5043273;28;19921;-51
2022/06/12 00:03:21;;;;;;;;;;;;;;;24.38;93.89;99547.81;5044978;28;19945;-51
2022/06/12 00:05:48;;;;;;;;;;;;;;;24.75;91.38;99546.66;5043342;28;19964;-49
2022/06/12 00:08:13;;;;;;;;;;;;;;;25.11;89.71;99549.81;5045068;28;19925;-49
2022/06/12 00:10:39;;;;;;;;;;;;;;;25.95;86.34;99544.44;5043654;28;20841;-51
2022/06/12 00:13:06;;;;;;;;;;;;;;;26.09;84.88;99546.72;5043045;28;19924;-51
2022/06/12 00:15:31;;;;;;;;;;;;;;;25.74;85.26;99550.59;5045869;28;19921;-53
2022/06/12 00:17:57;;;;;;;;;;;;;;;25.05;86.25;99552.00;5047850;28;19943;-51
2022/06/12 00:20:23;;;;;;;;;;;;;;;24.31;91.37;99557.16;5044988;28;20274;-51
2022/06/12 00:22:49;;;;;;;;;;;;;;;24.21;94.33;99543.06;5044903;28;20435;-53
2022/06/12 00:25:15;;;;;;;;;;;;;;;24.21;94.54;99549.16;5042499;28;19928;-52
2022/06/12 00:27:41;;;;;;;;;;;;;;;23.84;97.55;99547.78;5042343;28;20467;-53
2022/06/12 00:30:06;;;;;;;;;;;;;;;24.35;95.02;99545.41;5044337;28;19921;-52
2022/06/12 00:32:31;;;;;;;;;;;;;;;24.74;92.61;99543.16;5042920;28;19921;-53
2022/06/12 00:34:57;;;;;;;;;;;;;;;24.79;91.92;99540.16;5043925;28;19920;-52
2022/06/12 00:37:23;;;;;;;;;;;;;;;24.56;92.82;99544.66;5045713;28;19920;-53
2022/06/12 00:39:49;;;;;;;;;;;;;;;24.81;92.15;99543.50;5040299;28;19921;-52
2022/06/12 00:42:23;;;;;;;;;;;;;;;24.72;93.81;99541.63;5041907;28;20011;-53
2022/06/12 00:44:48;;;;;;;;;;;;;;;24.75;95.22;99549.28;5022159;28;20382;-53
2022/06/12 00:47:14;;;;;;;;;;;;;;;24.95;96.82;99551.09;5044732;28;19991;-51
2022/06/12 00:49:39;;;;;;;;;;;;;;;25.08;96.87;99550.91;5023288;28;20022;-52
2022/06/12 00:52:08;;;;;;;;;;;;;;;25.19;96.70;99550.03;5043007;28;20007;-52
2022/06/12 00:54:33;;;;;;;;;;;;;;;24.89;99.25;99551.59;5045193;28;19917;-53
2022/06/12 00:56:59;;;;;;;;;;;;;;;24.89;100.00;99556.88;5024278;28;19921;-52
2022/06/12 00:59:32;;;;;;;;;;;;;;;24.79;99.93;99550.69;5042244;28;19931;-50
2022/06/12 01:01:58;;;;;;;;;;;;;;;25.11;99.62;99553.31;5043194;28;19924;-53
2022/06/12 01:07:09;;;;;;;;;;;;;;;24.80;99.45;99549.72;5043091;28;19967;-53
2022/06/12 01:09:38;;;;;;;;;;;;;;;24.66;100.00;99544.78;5025531;28;19976;-51
2022/06/12 01:12:04;;;;;;;;;;;;;;;24.71;100.00;99553.13;5023389;28;20385;-54
2022/06/12 01:14:31;;;;;;;;;;;;;;;24.96;98.54;99544.84;5027540;28;19927;-52
2022/06/12 01:16:57;;;;;;;;;;;;;;;24.81;98.80;99538.22;5025191;28;20120;-53
2022/06/12 01:19:27;;;;;;;;;;;;;;;24.45;100.00;99545.53;5023899;28;19928;-50
2022/06/12 01:22:11;;;;;;;;;;;;;;;24.55;100.00;99546.47;5045347;28;20380;-52
2022/06/12 01:24:37;;;;;;;;;;;;;;;24.63;99.25;99536.16;5045571;28;19957;-53
2022/06/12 01:27:11;;;;;;;;;;;;;;;24.58;99.45;99534.84;5043440;28;19921;-52
2022/06/12 01:29:51;;;;;;;;;;;;;;;24.39;98.75;99538.13;5044591;28;20335;-52
2022/06/12 01:32:18;;;;;;;;;;;;;;;24.49;100.00;99540.88;5043542;28;19939;-52
2022/06/12 01:34:46;;;;;;;;;;;;;;;24.68;97.06;99532.28;5023475;28;19950;-50
2022/06/12 01:37:27;;;;;;;;;;;;;;;24.41;96.48;99536.19;5025036;28;19921;-52
2022/06/12 01:39:52;;;;;;;;;;;;;;;24.49;98.64;99539.06;5042438;28;19964;-51
2022/06/12 01:42:19;;;;;;;;;;;;;;;24.66;96.82;99535.06;5043354;28;20785;-52
2022/06/12 01:44:49;;;;;;;;;;;;;;;24.61;96.22;99538.06;5024864;28;20333;-52
2022/06/12 01:47:27;;;;;;;;;;;;;;;24.49;97.67;99539.06;5024539;28;19959;-53
2022/06/12 01:50:01;;;;;;;;;;;;;;;24.38;98.79;99537.28;5010338;28;19920;-53
2022/06/12 01:52:31;;;;;;;;;;;;;;;24.34;99.13;99530.59;5040887;28;20631;-49
2022/06/12 01:55:15;;;;;;;;;;;;;;;24.44;98.91;99530.69;5024646;28;20010;-53
2022/06/12 01:57:43;;;;;;;;;;;;;;;24.59;98.29;99532.09;5043604;28;19921;-53
2022/06/12 02:00:10;;;;;;;;;;;;;;;24.43;97.92;99534.28;5022771;28;20331;-54
2022/06/12 02:02:55;;;;;;;;;;;;;;;24.18;98.27;99533.63;5041148;28;19921;-53
2022/06/12 02:05:24;;;;;;;;;;;;;;;24.38;98.04;99533.78;5042915;28;19932;-52
2022/06/12 02:07:59;;;;;;;;;;;;;;;24.40;97.43;99530.09;5041534;28;20529;-52
2022/06/12 02:10:27;;;;;;;;;;;;;;;23.97;97.97;99525.66;5024349;28;20437;-53
2022/06/12 02:13:14;;;;;;;;;;;;;;;24.01;97.88;99534.13;5022131;28;20011;-53
2022/06/12 02:16:06;;;;;;;;;;;;;;;23.47;98.93;99535.69;5042884;28;19927;-53
2022/06/12 02:18:39;;;;;;;;;;;;;;;22.09;100.00;99533.53;5037190;28;19978;-49
2022/06/12 02:21:16;;;;;;;;;;;;;;;22.10;100.00;99540.47;5024689;28;19932;-52
2022/06/12 02:23:44;;;;;;;;;;;;;;;23.67;100.00;99531.47;5040792;28;20437;-53
2022/06/12 02:26:10;;;;;;;;;;;;;;;23.43;99.94;99528.16;5041022;28;19929;-51
2022/06/12 02:28:38;;;;;;;;;;;;;;;23.61;99.73;99531.16;5026092;28;19970;-52
2022/06/12 02:31:05;;;;;;;;;;;;;;;23.79;99.40;99533.19;5023841;28;20382;-53
2022/06/12 02:33:38;;;;;;;;;;;;;;;23.76;100.00;99530.78;5025719;28;19962;-52
2022/06/12 02:36:06;;;;;;;;;;;;;;;23.79;100.00;99525.31;5021545;28;19963;-54
2022/06/12 02:38:48;;;;;;;;;;;;;;;22.56;100.00;99533.72;5026254;28;19921;-53
2022/06/12 02:41:15;;;;;;;;;;;;;;;23.41;100.00;99530.88;5022576;28;19955;-52
2022/06/12 02:43:41;;;;;;;;;;;;;;;23.42;100.00;99521.19;5024375;28;19927;-52
2022/06/12 02:46:07;;;;;;;;;;;;;;;22.89;100.00;99525.13;5042353;28;19924;-53
2022/06/12 02:48:32;;;;;;;;;;;;;;;23.44;100.00;99509.59;5039818;28;19947;-54
2022/06/12 02:51:17;;;;;;;;;;;;;;;23.69;100.00;99529.56;5021559;28;20043;-53
2022/06/12 02:53:59;;;;;;;;;;;;;;;23.52;100.00;99530.06;5025180;28;20003;-54
2022/06/12 02:56:43;;;;;;;;;;;;;;;23.41;100.00;99530.06;5043275;28;19928;-53
2022/06/12 02:59:09;;;;;;;;;;;;;;;23.31;100.00;99522.88;5045517;28;19931;-54
2022/06/12 03:01:37;;;;;;;;;;;;;;;23.55;100.00;99521.94;5042332;28;19925;-54
2022/06/12 03:04:02;;;;;;;;;;;;;;;23.39;100.00;99528.34;5023076;28;19928;-54
2022/06/12 03:06:28;;;;;;;;;;;;;;;23.31;100.00;99536.00;5039769;28;19926;-53
2022/06/12 03:08:56;;;;;;;;;;;;;;;23.42;100.00;99526.44;5022047;28;20329;-53
2022/06/12 03:11:24;;;;;;;;;;;;;;;23.30;100.00;99533.50;5023215;28;19924;-52
2022/06/12 03:13:50;;;;;;;;;;;;;;;23.33;100.00;99531.47;5044120;28;20417;-54
2022/06/12 03:16:20;;;;;;;;;;;;;;;23.46;100.00;99527.91;5028497;28;20023;-54
2022/06/12 03:18:54;;;;;;;;;;;;;;;23.48;100.00;99526.81;5043441;28;20309;-52
2022/06/12 03:21:44;;;;;;;;;;;;;;;23.24;100.00;99532.19;5043133;28;20003;-53
2022/06/12 03:24:15;;;;;;;;;;;;;;;23.23;100.00;99532.28;5046579;28;19927;-53
2022/06/12 03:26:59;;;;;;;;;;;;;;;23.16;100.00;99531.91;5028089;28;20607;-54
2022/06/12 03:29:36;;;;;;;;;;;;;;;23.26;100.00;99532.88;5047042;28;19947;-54
2022/06/12 03:32:10;;;;;;;;;;;;;;;23.26;100.00;99537.31;5043383;28;20012;-53
2022/06/12 03:34:38;;;;;;;;;;;;;;;23.00;100.00;99544.53;5029111;28;19999;-55
2022/06/12 03:37:06;;;;;;;;;;;;;;;22.80;100.00;99536.31;5028241;28;20876;-54
2022/06/12 03:39:50;;;;;;;;;;;;;;;22.95;100.00;99544.84;5028912;28;20002;-55
2022/06/12 03:42:20;;;;;;;;;;;;;;;23.19;100.00;99542.19;5027221;28;20389;-52
2022/06/12 03:44:46;;;;;;;;;;;;;;;23.02;100.00;99537.38;5026681;28;20367;-53
2022/06/12 03:47:32;;;;;;;;;;;;;;;22.92;100.00;99545.94;5046520;28;19967;-53
2022/06/12 03:49:58;;;;;;;;;;;;;;;23.20;100.00;99541.25;5026904;28;19927;-52
2022/06/12 03:52:25;;;;;;;;;;;;;;;23.26;100.00;99532.03;5042321;28;19921;-52
2022/06/12 03:54:50;;;;;;;;;;;;;;;23.35;100.00;99537.44;5028008;28;19995;-53
2022/06/12 04:00:03;;;;;;;;;;;;;;;23.24;100.00;99540.06;5032401;28;19974;-53
2022/06/12 04:02:29;;;;;;;;;;;;;;;23.28;100.00;99530.13;5044630;28;19924;-52
2022/06/12 04:04:54;;;;;;;;;;;;;;;23.34;100.00;99535.78;5028044;28;19980;-53
2022/06/12 04:07:20;;;;;;;;;;;;;;;23.29;100.00;99532.66;5044128;28;19952;-54
2022/06/12 04:09:47;;;;;;;;;;;;;;;23.53;100.00;99529.09;5027804;28;19986;-54
2022/06/12 04:12:19;;;;;;;;;;;;;;;23.36;100.00;99527.78;5025506;28;19927;-54
2022/06/12 04:14:52;;;;;;;;;;;;;;;23.65;100.00;99528.16;5024258;28;19939;-54
2022/06/12 04:17:18;;;;;;;;;;;;;;;23.73;100.00;99528.38;5026615;28;19974;-54
2022/06/12 04:19:59;;;;;;;;;;;;;;;23.57;100.00;99535.78;5043406;28;19974;-54
2022/06/12 04:22:25;;;;;;;;;;;;;;;23.73;100.00;99528.38;5029248;28;19994;-53
2022/06/12 04:24:52;;;;;;;;;;;;;;;24.08;100.00;99532.66;5043262;28;19929;-52
2022/06/12 04:27:36;;;;;;;;;;;;;;;24.08;100.00;99540.56;5027879;28;19990;-54
2022/06/12 04:30:23;;;;;;;;;;;;;;;24.13;100.00;99542.81;5026397;28;20617;-54
2022/06/12 04:32:48;;;;;;;;;;;;;;;24.28;100.00;99541.59;5023229;28;19940;-55
2022/06/12 04:35:13;;;;;;;;;;;;;;;24.35;100.00;99544.59;5028870;28;20274;-55
2022/06/12 04:37:38;;;;;;;;;;;;;;;24.36;100.00;99548.91;5042146;28;20030;-54
2022/06/12 04:40:05;;;;;;;;;;;;;;;24.35;100.00;99547.22;5047404;28;20382;-53
2022/06/12 04:42:31;;;;;;;;;;;;;;;24.25;100.00;99541.88;5041254;28;20508;-54
2022/06/12 04:45:00;;;;;;;;;;;;;;;24.47;100.00;99546.25;5045006;28;19932;-55
2022/06/12 04:47:26;;;;;;;;;;;;;;;24.46;100.00;99547.19;5023875;28;19931;-53
2022/06/12 04:49:52;;;;;;;;;;;;;;;24.55;99.96;99543.84;5024753;28;19925;-54
2022/06/12 04:52:18;;;;;;;;;;;;;;;24.57;100.00;99536.66;5026487;28;20475;-53
2022/06/12 04:54:44;;;;;;;;;;;;;;;24.85;99.57;99537.00;5045144;28;19963;-53
2022/06/12 04:57:09;;;;;;;;;;;;;;;24.71;96.98;99532.06;5044157;28;19920;-52
2022/06/12 04:59:35;;;;;;;;;;;;;;;25.00;97.92;99533.09;5024908;28;19990;-55
2022/06/12 05:02:00;;;;;;;;;;;;;;;25.04;97.16;99531.03;5044652;28;20252;-55
2022/06/12 05:04:27;;;;;;;;;;;;;;;25.42;97.10;99530.47;5043387;28;19964;-56
2022/06/12 05:06:52;;;;;;;;;;;;;;;25.55;96.60;99532.06;5041432;28;19982;-55
2022/06/12 05:09:19;;;;;;;;;;;;;;;25.25;92.01;99531.09;5042773;28;19920;-55
2022/06/12 05:11:44;;;;;;;;;;;;;;;25.51;97.44;99536.75;5027559;28;19927;-55
2022/06/12 05:14:09;;;;;;;;;;;;;;;25.53;96.91;99536.63;5044409;28;19912;-55
2022/06/12 05:16:37;;;;;;;;;;;;;;;25.51;96.73;99525.38;5043631;28;19951;-56
2022/06/12 05:19:03;;;;;;;;;;;;;;;25.57;94.21;99524.84;5026259;28;19924;-54
2022/06/12 05:21:29;;;;;;;;;;;;;;;25.33;93.07;99520.69;5047455;28;19920;-54
2022/06/12 05:23:54;;;;;;;;;;;;;;;25.59;92.80;99522.91;5042980;28;19925;-55
2022/06/12 05:26:20;;;;;;;;;;;;;;;26.20;92.59;99522.84;5044688;28;19964;-55
2022/06/12 05:28:45;;;;;;;;;;;;;;;26.08;92.10;99521.28;5024974;28;19964;-56
2022/06/12 05:31:11;;;;;;;;;;;;;;;26.19;92.69;99520.34;5041955;28;20513;-56
2022/06/12 05:33:36;;;;;;;;;;;;;;;26.20;91.78;99522.00;5022117;28;19927;-54
2022/06/12 05:36:01;;;;;;;;;;;;;;;26.36;90.34;99521.47;5025428;28;19921;-55
2022/06/12 05:38:27;;;;;;;;;;;;;;;26.27;90.58;99525.75;5041722;28;20017;-56
2022/06/12 05:40:52;;;;;;;;;;;;;;;26.38;91.77;99530.09;5041702;28;20015;-56
2022/06/12 05:43:17;;;;;;;;;;;;;;;26.85;91.25;99527.63;5041804;28;20694;-54
2022/06/12 05:45:43;;;;;;;;;;;;;;;26.40;87.55;99528.16;5045306;28;20788;-56
2022/06/12 05:48:10;;;;;;;;;;;;;;;26.37;89.68;99525.81;5041451;28;20397;-55
2022/06/12 05:50:36;;;;;;;;;;;;;;;26.04;87.74;99527.81;5041315;28;19925;-57
2022/06/12 05:53:02;;;;;;;;;;;;;;;24.78;94.40;99535.84;5042662;28;20444;-55
2022/06/12 05:55:27;;;;;;;;;;;;;;;24.62;97.13;99529.19;5041749;28;19932;-56
2022/06/12 05:57:52;;;;;;;;;;;;;;;24.03;95.77;99532.22;5041988;28;20023;-55
2022/06/12 06:00:19;;;;;;;;;;;;;;;25.22;93.05;99531.31;5044755;28;19979;-56
2022/06/12 06:02:44;;;;;;;;;;;;;;;24.45;95.55;99537.63;5039310;28;20121;-56
2022/06/12 06:05:10;;;;;;;;;;;;;;;24.63;92.88;99525.63;5027078;28;19925;-54
2022/06/12 06:07:35;;;;;;;;;;;;;;;25.45;88.13;99532.84;5043518;28;20021;-56
2022/06/12 06:10:01;;;;;;;;;;;;;;;24.91;90.62;99539.16;5040397;28;19921;-54
2022/06/12 06:12:26;;;;;;;;;;;;;;;23.89;90.48;99535.09;5038997;28;19921;-56
2022/06/12 06:14:51;;;;;;;;;;;;;;;23.23;91.41;99538.38;5039634;28;20328;-55
2022/06/12 06:17:17;;;;;;;;;;;;;;;23.21;91.52;99534.19;5043287;28;19924;-56
2022/06/12 06:19:42;;;;;;;;;;;;;;;23.92;90.65;99519.06;5039445;28;19917;-54
2022/06/12 06:22:07;;;;;;;;;;;;;;;24.42;88.38;99527.34;5039271;28;19921;-57
2022/06/12 06:24:32;;;;;;;;;;;;;;;23.41;90.24;99530.88;5040708;28;20039;-56
2022/06/12 06:26:57;;;;;;;;;;;;;;;23.90;91.12;99532.38;5039054;28;19931;-57
2022/06/12 06:29:23;;;;;;;;;;;;;;;24.27;87.90;99529.41;5038805;28;19981;-56
2022/06/12 06:31:48;;;;;;;;;;;;;;;24.33;85.59;99528.06;5041322;28;19920;-56
2022/06/12 06:34:14;;;;;;;;;;;;;;;24.59;83.10;99529.47;5042181;28;21105;-56
2022/06/12 06:36:39;;;;;;;;;;;;;;;25.21;82.92;99533.13;5041350;28;19921;-56
2022/06/12 06:39:04;;;;;;;;;;;;;;;25.54;82.61;99535.66;5023940;28;19924;-56
2022/06/12 06:41:30;;;;;;;;;;;;;;;24.43;85.95;99542.19;5043357;28;19923;-55
2022/06/12 06:46:39;;;;;;;;;;;;;;;24.69;83.36;99542.72;5043385;28;19974;-54
2022/06/12 06:49:04;;;;;;;;;;;;;;;24.43;83.93;99545.66;5038346;28;19921;-56
2022/06/12 06:51:30;;;;;;;;;;;;;;;24.64;83.94;99544.88;5039659;28;20306;-56
2022/06/12 06:53:56;;;;;;;;;;;;;;;24.58;83.98;99548.84;5036811;28;20062;-56
2022/06/12 06:56:21;;;;;;;;;;;;;;;24.58;85.75;99551.47;5041914;28;20510;-55
2022/06/12 06:58:47;;;;;;;;;;;;;;;24.38;86.81;99560.13;5037728;28;20254;-56
2022/06/12 07:01:12;;;;;;;;;;;;;;;24.46;89.01;99556.88;5040068;28;19927;-55
2022/06/12 07:03:38;;;;;;;;;;;;;;;24.36;89.30;99554.16;5040282;28;20698;-55
2022/06/12 07:06:03;;;;;;;;;;;;;;;24.78;87.68;99549.03;5040641;28;19952;-55
2022/06/12 07:08:29;;;;;;;;;;;;;;;25.44;85.99;99541.72;5040451;28;19952;-56
2022/06/12 07:10:55;;;;;;;;;;;;;;;24.68;86.32;99545.47;5039289;28;19929;-55
2022/06/12 07:13:20;;;;;;;;;;;;;;;26.18;78.02;99540.63;5038115;28;20003;-54
2022/06/12 07:15:46;;;;;;;;;;;;;;;25.15;85.44;99551.22;5042291;28;20370;-55
2022/06/12 07:18:11;;;;;;;;;;;;;;;26.76;75.30;99542.53;5040748;28;19932;-57
2022/06/12 07:20:38;;;;;;;;;;;;;;;25.58;77.21;99547.63;5041895;28;19921;-56
2022/06/12 07:23:04;;;;;;;;;;;;;;;25.23;78.96;99544.38;5040584;28;19924;-56
2022/06/12 07:25:30;;;;;;;;;;;;;;;25.11;79.87;99550.66;5037004;28;20305;-56
2022/06/12 07:27:55;;;;;;;;;;;;;;;24.58;81.95;99559.38;5040859;28;19920;-56
2022/06/12 07:30:21;;;;;;;;;;;;;;;25.05;78.00;99561.72;5037313;28;19928;-55
2022/06/12 07:32:46;;;;;;;;;;;;;;;25.08;78.62;99556.16;5040679;28;19924;-56
2022/06/12 07:35:11;;;;;;;;;;;;;;;25.18;79.01;99556.22;5039762;28;20235;-56
2022/06/12 07:37:37;;;;;;;;;;;;;;;25.27;77.24;99552.84;5040370;28;19920;-56
2022/06/12 07:40:04;;;;;;;;;;;;;;;25.31;79.20;99562.19;5040431;28;19920;-56
2022/06/12 07:42:30;;;;;;;;;;;;;;;26.05;77.45;99550.63;5040259;28;19963;-56
2022/06/12 07:44:55;;;;;;;;;;;;;;;26.30;73.57;99554.56;5021049;28;20051;-55
2022/06/12 07:47:20;;;;;;;;;;;;;;;26.54;73.29;99548.88;5036635;28;19975;-55
2022/06/12 07:49:45;;;;;;;;;;;;;;;25.74;79.82;99558.50;5022906;28;19996;-55
2022/06/12 07:52:12;;;;;;;;;;;;;;;25.18;76.99;99561.50;5043598;28;19962;-56
2022/06/12 07:54:38;;;;;;;;;;;;;;;26.06;75.57;99553.09;5040164;28;20031;-55
2022/06/12 07:57:04;;;;;;;;;;;;;;;25.99;74.30;99553.78;5043369;28;20323;-56
2022/06/12 07:59:29;;;;;;;;;;;;;;;25.62;78.08;99554.31;5046600;28;20388;-57
2022/06/12 08:01:54;;;;;;;;;;;;;;;26.58;74.45;99555.59;5045183;28;19988;-55
2022/06/12 08:04:20;;;;;;;;;;;;;;;25.28;74.74;99564.25;5046316;28;20054;-56
2022/06/12 08:06:46;;;;;;;;;;;;;;;26.35;70.49;99557.63;5042921;28;22003;-57
2022/06/12 08:09:11;;;;;;;;;;;;;;;25.93;69.68;99562.22;5042245;28;19970;-56
2022/06/12 08:11:37;;;;;;;;;;;;;;;26.75;71.64;99561.97;5044428;28;19920;-55
2022/06/12 08:14:03;;;;;;;;;;;;;;;27.12;68.65;99556.81;5043062;28;19927;-55
2022/06/12 08:16:28;;;;;;;;;;;;;;;26.00;74.46;99563.34;5025972;28;19921;-56
2022/06/12 08:18:53;;;;;;;;;;;;;;;26.31;73.74;99560.66;5045426;28;19921;-55
2022/06/12 08:21:19;;;;;;;;;;;;;;;27.46;69.43;99553.72;5045862;28;19932;-54
2022/06/12 08:23:47;;;;;;;;;;;;;;;26.44;71.17;99566.53;5047536;28;20817;-54
2022/06/12 08:26:18;;;;;;;;;;;;;;;26.81;72.57;99555.31;5028367;28;19976;-57
2022/06/12 08:28:48;;;;;;;;;;;;;;;27.30;70.79;99559.59;5027974;28;19917;-56
2022/06/12 08:31:18;;;;;;;;;;;;;;;26.86;72.42;99566.28;5043544;28;19925;-56
2022/06/12 08:33:44;;;;;;;;;;;;;;;27.73;70.00;99560.00;5025506;28;19920;-56
2022/06/12 08:36:10;;;;;;;;;;;;;;;27.33;69.55;99571.72;5042444;28;19993;-55
2022/06/12 08:38:35;;;;;;;;;;;;;;;27.90;70.12;99561.94;5024054;28;20053;-54
2022/06/12 08:41:00;;;;;;;;;;;;;;;30.55;59.72;99543.25;5044441;28;19921;-54
2022/06/12 08:43:35;;;;;;;;;;;;;;;29.96;54.37;99552.03;5043526;28;19921;-55
2022/06/12 08:46:11;;;;;;;;;;;;;;;29.63;58.77;99544.91;5045172;28;19924;-55
2022/06/12 08:48:44;;;;;;;;;;;;;;;28.78;57.51;99548.13;5042655;28;19920;-55
2022/06/12 08:51:10;;;;;;;;;;;;;;;28.27;62.10;99547.78;5044467;28;19952;-55
2022/06/12 08:53:38;;;;;;;;;;;;;;;26.27;71.12;99550.38;5025677;28;20296;-56
2022/06/12 08:56:07;;;;;;;;;;;;;;;26.12;74.75;99551.75;5045666;28;19924;-56
2022/06/12 08:58:41;;;;;;;;;;;;;;;27.23;69.49;99531.22;5025509;28;19928;-56
2022/06/12 09:01:07;;;;;;;;;;;;;;;27.58;68.99;99537.66;5026775;28;19920;-55
2022/06/12 09:03:36;;;;;;;;;;;;;;;27.05;70.90;99536.34;5045674;28;20421;-56
2022/06/12 09:06:04;;;;;;;;;;;;;;;28.21;63.41;99527.19;5024074;28;19924;-56
2022/06/12 09:08:31;;;;;;;;;;;;;;;29.04;60.86;99526.13;5045193;28;20255;-55
2022/06/12 09:10:59;;;;;;;;;;;;;;;28.99;58.85;99532.72;5041103;28;19920;-55
2022/06/12 09:13:24;;;;;;;;;;;;;;;28.99;61.62;99522.13;5045168;28;19929;-56
2022/06/12 09:15:52;;;;;;;;;;;;;;;29.63;57.08;99513.03;5045174;28;20671;-56
2022/06/12 09:18:53;;;;;;;;;;;;;;;27.82;66.24;99530.00;5045546;28;19916;-57
2022/06/12 09:21:25;;;;;;;;;;;;;;;28.85;61.65;99524.47;4965645;28;20053;-55
2022/06/12 09:24:10;;;;;;;;;;;;;;;28.87;56.46;99520.69;5012833;28;20014;-55
2022/06/12 09:26:50;;;;;;;;;;;;;;;29.61;55.57;99511.41;5026233;28;19959;-55
2022/06/12 09:29:35;;;;;;;;;;;;;;;28.35;64.17;99512.56;5045923;28;19951;-56
2022/06/12 09:32:00;;;;;;;;;;;;;;;28.69;57.62;99510.13;5043123;28;19921;-55
2022/06/12 09:34:29;;;;;;;;;;;;;;;27.38;64.32;99524.50;5044387;28;19939;-55
2022/06/12 09:36:54;;;;;;;;;;;;;;;27.35;70.13;99526.59;5045855;28;19921;-56
2022/06/12 09:39:22;;;;;;;;;;;;;;;28.54;49.31;99501.88;5044543;28;19917;-55
2022/06/12 09:41:50;;;;;;;;;;;;;;;29.42;56.10;99514.28;5005763;28;19920;-54
2022/06/12 09:44:51;;;;;;;;;;;;;;;29.29;47.29;99505.94;5024722;28;19955;-56
2022/06/12 09:47:48;;;;;;;;;;;;;;;29.16;50.02;99507.16;4936202;28;20381;-55
2022/06/12 09:50:22;;;;;;;;;;;;;;;28.04;51.85;99504.16;5008767;28;19920;-56
2022/06/12 09:52:54;;;;;;;;;;;;;;;27.89;50.42;99507.28;5044867;28;19920;-56
2022/06/12 09:55:39;;;;;;;;;;;;;;;28.73;52.76;99495.56;5026027;28;20015;-55
2022/06/12 09:58:04;;;;;;;;;;;;;;;27.64;56.48;99497.38;5041839;28;20236;-57
2022/06/12 10:00:38;;;;;;;;;;;;;;;25.88;65.43;99517.75;5043770;28;19927;-39
2022/06/12 10:03:08;;;;;;;;;;;;;;;26.74;63.14;99504.00;5044369;28;19978;-39
2022/06/12 10:05:42;;;;;;;;;;;;;;;27.11;57.63;99494.31;5041915;28;20822;-39
2022/06/12 10:08:37;;;;;;;;;;;;;;;26.83;61.75;99505.81;5043469;28;19921;-39
2022/06/12 10:11:06;;;;;;;;;;;;;;;27.93;61.55;99487.50;5020061;28;20323;-39
2022/06/12 10:13:39;;;;;;;;;;;;;;;29.09;56.03;99486.75;5023788;28;19996;-39
2022/06/12 10:16:14;;;;;;;;;;;;;;;29.57;46.33;99478.19;5025604;28;20401;-39
2022/06/12 10:18:43;;;;;;;;;;;;;;;29.60;44.97;99477.03;5018321;28;19947;-39
2022/06/12 10:21:14;;;;;;;;;;;;;;;30.20;47.01;99478.75;5023374;28;19920;-39
2022/06/12 10:23:39;;;;;;;;;;;;;;;28.10;47.49;99477.94;5027188;28;20022;-39
2022/06/12 10:26:12;;;;;;;;;;;;;;;28.85;48.77;99482.06;5043398;28;20336;-39
2022/06/12 10:28:38;;;;;;;;;;;;;;;28.73;50.02;99479.66;5023724;28;19927;-39
2022/06/12 10:31:04;;;;;;;;;;;;;;;28.55;49.87;99477.03;5022936;28;20409;-39
2022/06/12 10:33:31;;;;;;;;;;;;;;;29.49;49.21;99474.66;5042395;28;19920;-39
2022/06/12 10:35:58;;;;;;;;;;;;;;;31.38;42.35;99467.69;5022988;28;19916;-39
2022/06/12 10:38:24;;;;;;;;;;;;;;;30.20;39.10;99457.50;5040990;28;20476;-39
2022/06/12 10:40:54;;;;;;;;;;;;;;;29.78;43.49;99455.72;5037384;28;19920;-40
2022/06/12 10:43:26;;;;;;;;;;;;;;;29.60;45.30;99461.97;5043150;28;20690;-39
2022/06/12 10:46:11;;;;;;;;;;;;;;;30.21;41.44;99461.78;5018815;28;19925;-39
2022/06/12 10:48:36;;;;;;;;;;;;;;;31.46;38.16;99449.06;5041451;28;19917;-39
2022/06/12 10:51:03;;;;;;;;;;;;;;;32.92;38.17;99446.41;5044377;28;19917;-39
2022/06/12 10:53:30;;;;;;;;;;;;;;;31.22;41.54;99453.44;5041744;28;19921;-39
2022/06/12 10:55:57;;;;;;;;;;;;;;;30.36;44.19;99459.38;5044763;28;20007;-39
2022/06/12 10:58:28;;;;;;;;;;;;;;;27.22;52.39;99460.81;5042710;28;19931;-39
2022/06/12 11:00:54;;;;;;;;;;;;;;;28.18;52.01;99458.63;5041283;28;19921;-39
2022/06/12 11:03:39;;;;;;;;;;;;;;;28.71;49.56;99454.28;5021736;28;19951;-39
2022/06/12 11:06:15;;;;;;;;;;;;;;;30.46;45.57;99456.53;5043738;28;20332;-39
2022/06/12 11:08:59;;;;;;;;;;;;;;;29.54;46.02;99446.69;5022084;28;19924;-55
2022/06/12 11:11:30;;;;;;;;;;;;;;;30.35;44.67;99439.91;5041115;28;20216;-55
2022/06/12 11:14:12;;;;;;;;;;;;;;;28.23;50.36;99453.69;5042524;28;19916;-57
2022/06/12 11:16:40;;;;;;;;;;;;;;;28.80;48.27;99447.25;5025976;28;20030;-57
2022/06/12 11:19:26;;;;;;;;;;;;;;;29.10;47.11;99435.34;5042931;28;20319;-56
2022/06/12 11:22:10;;;;;;;;;;;;;;;31.44;42.51;99424.47;5012172;28;19921;-55
2022/06/12 11:24:44;;;;;;;;;;;;;;;31.20;41.12;99434.19;5041410;28;19928;-56
2022/06/12 11:27:17;;;;;;;;;;;;;;;30.73;38.31;99436.75;5044064;28;19978;-57
2022/06/12 11:29:45;;;;;;;;;;;;;;;29.08;44.03;99427.56;5041021;28;19917;-56
2022/06/12 11:32:16;;;;;;;;;;;;;;;32.46;40.72;99414.47;5043849;28;19990;-56
2022/06/12 11:34:47;;;;;;;;;;;;;;;31.11;39.48;99421.06;5047029;28;20834;-56
2022/06/12 11:37:15;;;;;;;;;;;;;;;29.22;41.42;99426.16;5047560;28;19917;-56
2022/06/12 11:39:41;;;;;;;;;;;;;;;29.50;43.71;99426.75;5046563;28;19923;-56
2022/06/12 11:42:18;;;;;;;;;;;;;;;29.05;43.95;99425.19;5046519;28;19916;-56
2022/06/12 11:44:46;;;;;;;;;;;;;;;27.79;47.45;99428.91;5044380;28;19925;-56
2022/06/12 11:47:25;;;;;;;;;;;;;;;29.90;45.89;99421.75;5046759;28;19999;-55
2022/06/12 11:49:56;;;;;;;;;;;;;;;30.52;42.23;99418.63;5030949;28;19958;-56
2022/06/12 11:52:30;;;;;;;;;;;;;;;30.57;40.88;99416.34;5046018;28;19920;-56
2022/06/12 11:54:55;;;;;;;;;;;;;;;30.09;44.33;99412.66;5023724;28;19931;-55
2022/06/12 11:57:23;;;;;;;;;;;;;;;28.44;47.03;99415.47;5046469;28;19925;-56
2022/06/12 11:59:48;;;;;;;;;;;;;;;28.91;48.73;99413.34;5027728;28;20665;-56
2022/06/12 12:02:16;;;;;;;;;;;;;;;30.03;42.90;99401.66;5049022;28;19916;-56
2022/06/12 12:04:41;;;;;;;;;;;;;;;29.11;42.01;99410.50;5026504;28;20711;-57
2022/06/12 12:07:06;;;;;;;;;;;;;;;28.97;45.66;99406.59;5047391;28;19995;-57
2022/06/12 12:09:38;;;;;;;;;;;;;;;30.43;42.83;99400.06;5047137;28;19928;-57
2022/06/12 12:12:09;;;;;;;;;;;;;;;29.90;41.67;99403.16;5046788;28;19925;-57
2022/06/12 12:14:35;;;;;;;;;;;;;;;29.99;43.26;99418.94;5028444;28;20711;-57
2022/06/12 12:17:05;;;;;;;;;;;;;;;28.75;39.01;99414.06;5048078;28;20184;-56
2022/06/12 12:19:41;;;;;;;;;;;;;;;30.08;40.61;99413.63;5025750;28;19923;-55
2022/06/12 12:22:25;;;;;;;;;;;;;;;29.45;38.88;99414.97;5030283;28;20420;-55
2022/06/12 12:25:02;;;;;;;;;;;;;;;30.54;37.71;99416.66;5045500;28;19936;-56
2022/06/12 12:27:28;;;;;;;;;;;;;;;32.48;36.87;99396.47;5013298;28;19928;-56
2022/06/12 12:29:53;;;;;;;;;;;;;;;31.96;35.02;99405.22;5047069;28;20252;-56
2022/06/12 12:32:19;;;;;;;;;;;;;;;30.48;34.54;99401.41;5028838;28;20394;-55
2022/06/12 12:34:44;;;;;;;;;;;;;;;29.26;35.62;99416.84;5029744;28;19927;-56
2022/06/12 12:41:11;;;;;;;;;;;;;;;28.43;34.84;99404.03;5027547;28;19943;-56
2022/06/12 12:43:05;;;;;;;;;;;;;;;28.59;35.46;99407.84;5041713;28;19947;-56
2022/06/12 12:45:32;;;;;;;;;;;;;;;29.72;37.14;99405.94;5026859;28;20278;-56
2022/06/12 12:48:02;;;;;;;;;;;;;;;29.76;35.14;99404.63;5025313;28;19921;-57
2022/06/12 12:50:28;;;;;;;;;;;;;;;30.73;34.57;99400.34;5043888;28;20019;-56
2022/06/12 12:52:55;;;;;;;;;;;;;;;29.14;33.93;99400.41;5030365;28;19949;-55
2022/06/12 12:55:20;;;;;;;;;;;;;;;28.78;33.80;99400.53;5044874;28;20417;-57
2022/06/12 12:57:46;;;;;;;;;;;;;;;30.29;34.55;99403.41;5044944;28;20036;-56
2022/06/12 13:00:17;;;;;;;;;;;;;;;30.74;34.13;99396.69;5044990;28;19925;-57
2022/06/12 13:02:53;;;;;;;;;;;;;;;30.06;33.84;99392.56;5044552;28;19983;-56
2022/06/12 13:05:45;;;;;;;;;;;;;;;31.82;33.43;99384.66;5046715;28;19936;-55
2022/06/12 13:08:20;;;;;;;;;;;;;;;32.18;32.10;99376.06;5040458;28;19955;-56